Time;durP1;ratioP1;P1;durP2;ratioP2;P2;SDS_P1;SDS_P2;PMS_P1;PMS_P2;Temp;Humidity;BMP_temperature;BMP_pressure;BME280_temperature;BME280_humidity;BME280_pressure;Samples;Min_cycle;Max_cycle;Signal;HPM_P1;HPM_P2
2022/12/29 00:01:48;;;;;;;4.57;3.70;;;;;;;;;;4996652;28;20026;-64
2022/12/29 00:04:14;;;;;;;6.70;4.13;;;;;;;;;;5014554;28;20052;-66
2022/12/29 00:06:41;;;;;;;7.20;4.35;;;;;;;;;;5014559;28;20477;-66
2022/12/29 00:09:06;;;;;;;6.07;3.88;;;;;;;;;;5013546;28;20045;-63
2022/12/29 00:11:32;;;;;;;7.05;4.05;;;;;;;;;;5014285;28;20022;-63
2022/12/29 00:16:43;;;;;;;5.95;3.95;;;;;;;;;;5013296;28;21615;-63
2022/12/29 00:35:07;;;;;;;5.50;4.05;;;;;;;;;;5010543;28;20057;-62
2022/12/29 00:35:52;;;;;;;5.30;3.53;;;;;;;;;;4997596;28;20057;-66
2022/12/29 00:46:30;;;;;;;8.57;4.20;;;;;;;;;;5013930;28;20049;-63
2022/12/29 00:51:40;;;;;;;6.50;3.80;;;;;;;;;;5012885;28;20072;-63
2022/12/29 00:54:05;;;;;;;6.13;4.00;;;;;;;;;;5013746;28;20029;-63
2022/12/29 00:56:31;;;;;;;5.13;3.75;;;;;;;;;;5012450;28;20062;-64
2022/12/29 00:59:03;;;;;;;5.70;3.97;;;;;;;;;;5013311;28;20026;-63
2022/12/29 01:01:29;;;;;;;4.85;3.53;;;;;;;;;;5013514;28;20029;-63
2022/12/29 01:03:55;;;;;;;5.60;4.03;;;;;;;;;;5011136;28;20022;-63
2022/12/29 01:06:21;;;;;;;5.95;3.90;;;;;;;;;;5012165;28;20022;-63
2022/12/29 01:08:46;;;;;;;5.88;3.80;;;;;;;;;;5013083;28;20496;-63
2022/12/29 01:11:12;;;;;;;4.22;3.67;;;;;;;;;;5013183;28;20030;-63
2022/12/29 01:13:40;;;;;;;6.85;4.00;;;;;;;;;;5013208;28;20362;-62
2022/12/29 01:16:06;;;;;;;6.80;3.58;;;;;;;;;;5013233;28;20111;-62
2022/12/29 01:18:32;;;;;;;5.13;3.58;;;;;;;;;;5013111;28;20029;-62
2022/12/29 01:21:05;;;;;;;6.30;3.78;;;;;;;;;;5012868;28;20046;-62
2022/12/29 01:23:31;;;;;;;5.75;3.90;;;;;;;;;;5012902;28;20025;-63
2022/12/29 01:25:57;;;;;;;5.28;3.83;;;;;;;;;;5012866;28;20533;-66
2022/12/29 01:28:23;;;;;;;5.38;3.58;;;;;;;;;;5013088;28;20118;-67
2022/12/29 01:30:49;;;;;;;4.88;3.55;;;;;;;;;;5012809;28;20425;-62
2022/12/29 01:33:14;;;;;;;5.97;3.80;;;;;;;;;;5013013;28;20104;-63
2022/12/29 01:35:40;;;;;;;4.97;3.70;;;;;;;;;;5012812;28;20034;-62
2022/12/29 01:38:05;;;;;;;4.35;3.63;;;;;;;;;;5013086;28;20025;-62
2022/12/29 01:40:31;;;;;;;4.53;3.58;;;;;;;;;;5012896;28;20018;-62
2022/12/29 01:42:56;;;;;;;4.47;3.63;;;;;;;;;;5012643;28;20034;-63
2022/12/29 01:45:22;;;;;;;5.00;3.67;;;;;;;;;;4995149;28;20100;-62
2022/12/29 01:47:53;;;;;;;4.85;3.60;;;;;;;;;;5012618;28;20378;-63
2022/12/29 01:50:32;;;;;;;6.10;3.85;;;;;;;;;;5012674;28;20485;-62
2022/12/29 01:53:02;;;;;;;5.03;3.47;;;;;;;;;;5011997;28;20048;-63
2022/12/29 01:55:30;;;;;;;7.00;3.85;;;;;;;;;;5012769;28;20366;-62
2022/12/29 01:57:59;;;;;;;5.38;3.72;;;;;;;;;;5012614;28;20485;-62
2022/12/29 02:00:24;;;;;;;6.72;3.63;;;;;;;;;;5012571;28;20037;-62
2022/12/29 02:02:54;;;;;;;4.78;3.60;;;;;;;;;;5012683;28;20026;-62
2022/12/29 02:05:23;;;;;;;4.85;3.80;;;;;;;;;;5012765;28;20389;-62
2022/12/29 02:07:51;;;;;;;6.07;3.72;;;;;;;;;;5012747;28;20393;-63
2022/12/29 02:10:20;;;;;;;5.15;4.05;;;;;;;;;;5012301;28;20026;-62
2022/12/29 02:12:46;;;;;;;6.07;3.85;;;;;;;;;;5012345;28;20022;-63
2022/12/29 02:15:12;;;;;;;6.25;4.13;;;;;;;;;;5012437;28;20026;-62
2022/12/29 02:18:09;;;;;;;4.40;3.63;;;;;;;;;;5012593;28;20497;-63
2022/12/29 02:20:48;;;;;;;5.60;3.58;;;;;;;;;;5012140;28;20053;-63
2022/12/29 02:23:35;;;;;;;5.82;4.00;;;;;;;;;;5011949;28;20084;-63
2022/12/29 02:26:09;;;;;;;4.82;3.22;;;;;;;;;;5012275;28;20109;-62
2022/12/29 02:29:04;;;;;;;6.25;4.30;;;;;;;;;;5012153;28;20462;-62
2022/12/29 02:31:56;;;;;;;4.68;3.85;;;;;;;;;;5012553;28;20074;-62
2022/12/29 02:34:50;;;;;;;4.78;3.53;;;;;;;;;;5012447;28;20092;-63
2022/12/29 02:37:35;;;;;;;6.30;4.30;;;;;;;;;;5012273;28;20029;-63
2022/12/29 02:40:27;;;;;;;5.30;3.70;;;;;;;;;;5012290;28;20022;-67
2022/12/29 02:43:08;;;;;;;5.00;3.58;;;;;;;;;;4982172;28;20033;-63
2022/12/29 02:45:56;;;;;;;6.30;3.78;;;;;;;;;;5012367;28;20377;-63
2022/12/29 02:48:29;;;;;;;7.03;3.38;;;;;;;;;;5011940;28;20052;-62
2022/12/29 02:51:10;;;;;;;7.15;3.90;;;;;;;;;;5012144;28;20034;-63
2022/12/29 02:56:21;;;;;;;5.20;3.72;;;;;;;;;;5012395;28;20164;-63
2022/12/29 02:58:47;;;;;;;5.30;3.90;;;;;;;;;;5011870;28;20109;-63
2022/12/29 03:02:16;;;;;;;5.30;4.00;;;;;;;;;;5011975;28;20045;-63
2022/12/29 03:04:46;;;;;;;5.60;3.85;;;;;;;;;;5013580;28;20118;-63
2022/12/29 03:07:20;;;;;;;5.40;3.70;;;;;;;;;;5015411;28;20060;-68
2022/12/29 03:10:15;;;;;;;5.50;3.70;;;;;;;;;;5015709;28;20040;-63
2022/12/29 03:18:35;;;;;;;5.22;3.90;;;;;;;;;;5015671;28;20053;-63
2022/12/29 03:21:17;;;;;;;5.20;4.00;;;;;;;;;;5014948;28;20025;-63
2022/12/29 03:23:47;;;;;;;6.10;4.07;;;;;;;;;;4997811;28;20390;-62
2022/12/29 03:26:15;;;;;;;4.60;3.65;;;;;;;;;;5015376;28;20112;-66
2022/12/29 03:28:51;;;;;;;6.18;4.10;;;;;;;;;;5014858;28;20038;-62
2022/12/29 03:31:18;;;;;;;5.15;3.70;;;;;;;;;;5015005;28;20040;-62
2022/12/29 03:33:46;;;;;;;4.43;3.60;;;;;;;;;;5014839;28;20065;-63
2022/12/29 03:36:17;;;;;;;4.57;3.90;;;;;;;;;;5014955;28;20072;-62
2022/12/29 03:39:07;;;;;;;7.30;4.20;;;;;;;;;;5015242;28;20424;-63
2022/12/29 03:41:35;;;;;;;4.57;3.50;;;;;;;;;;5014955;28;20026;-62
2022/12/29 03:44:00;;;;;;;6.63;3.95;;;;;;;;;;5015357;28;20446;-62
2022/12/29 03:46:26;;;;;;;6.63;3.95;;;;;;;;;;5014690;28;20153;-62
2022/12/29 03:48:51;;;;;;;5.75;3.88;;;;;;;;;;4996984;28;20030;-67
2022/12/29 03:51:17;;;;;;;4.43;3.35;;;;;;;;;;5014932;28;20030;-66
2022/12/29 03:53:42;;;;;;;4.57;3.47;;;;;;;;;;5014821;28;20040;-66
2022/12/29 03:56:08;;;;;;;6.40;3.90;;;;;;;;;;5014482;28;20018;-67
2022/12/29 03:58:34;;;;;;;4.75;3.72;;;;;;;;;;5014618;28;20083;-63
2022/12/29 04:01:00;;;;;;;5.32;3.65;;;;;;;;;;5014463;28;20032;-64
2022/12/29 04:03:25;;;;;;;4.35;3.40;;;;;;;;;;5014595;28;20033;-62
2022/12/29 04:05:51;;;;;;;4.80;3.60;;;;;;;;;;5016040;28;20064;-63
2022/12/29 04:08:16;;;;;;;5.15;3.50;;;;;;;;;;5014575;28;20037;-62
2022/12/29 04:10:42;;;;;;;4.65;3.35;;;;;;;;;;5014794;28;20029;-62
2022/12/29 04:13:07;;;;;;;4.20;3.40;;;;;;;;;;5014376;28;20026;-62
2022/12/29 04:15:33;;;;;;;5.88;3.85;;;;;;;;;;5014110;28;20030;-62
2022/12/29 04:17:58;;;;;;;5.43;3.47;;;;;;;;;;5014065;28;20033;-67
2022/12/29 04:23:08;;;;;;;5.70;3.92;;;;;;;;;;5013884;28;20083;-66
2022/12/29 04:25:34;;;;;;;6.30;3.58;;;;;;;;;;5014169;28;20116;-63
2022/12/29 04:28:00;;;;;;;5.13;3.45;;;;;;;;;;5013913;28;20026;-66
2022/12/29 04:30:26;;;;;;;5.32;4.03;;;;;;;;;;5013955;28;20033;-67
2022/12/29 04:32:51;;;;;;;4.50;3.78;;;;;;;;;;5013666;28;20030;-66
2022/12/29 04:35:17;;;;;;;6.22;3.72;;;;;;;;;;5013781;28;20026;-63
2022/12/29 04:37:42;;;;;;;5.20;3.50;;;;;;;;;;5013892;28;20036;-63
2022/12/29 04:40:09;;;;;;;4.93;3.85;;;;;;;;;;5013909;28;20120;-63
2022/12/29 04:42:34;;;;;;;5.60;3.88;;;;;;;;;;5013789;28;20026;-63
2022/12/29 04:45:00;;;;;;;3.58;3.22;;;;;;;;;;5013528;28;20037;-62
2022/12/29 04:47:25;;;;;;;5.70;4.03;;;;;;;;;;5013844;28;20305;-62
2022/12/29 04:49:51;;;;;;;3.95;2.95;;;;;;;;;;5013488;28;20030;-63
2022/12/29 04:52:16;;;;;;;5.80;4.03;;;;;;;;;;5013512;28;20037;-63
2022/12/29 04:54:42;;;;;;;5.50;4.15;;;;;;;;;;5013505;28;20022;-62
2022/12/29 04:57:07;;;;;;;5.38;3.70;;;;;;;;;;5013389;28;20029;-63
2022/12/29 04:59:33;;;;;;;4.80;3.63;;;;;;;;;;5013359;28;20034;-63
2022/12/29 05:01:59;;;;;;;4.93;3.72;;;;;;;;;;5013301;28;20030;-67
2022/12/29 05:04:24;;;;;;;6.55;3.78;;;;;;;;;;5013471;28;20109;-62
2022/12/29 05:06:50;;;;;;;5.28;3.70;;;;;;;;;;5013187;28;20398;-63
2022/12/29 05:09:15;;;;;;;6.03;3.90;;;;;;;;;;5013401;28;20025;-64
2022/12/29 05:11:41;;;;;;;5.20;3.85;;;;;;;;;;5013537;28;20478;-62
2022/12/29 05:14:06;;;;;;;5.07;3.97;;;;;;;;;;5013156;28;20458;-62
2022/12/29 05:16:32;;;;;;;4.95;3.80;;;;;;;;;;5013386;28;20026;-63
2022/12/29 05:18:57;;;;;;;4.80;3.67;;;;;;;;;;5013345;28;20458;-62
2022/12/29 05:21:23;;;;;;;4.93;3.70;;;;;;;;;;5012787;28;20046;-62
2022/12/29 05:23:48;;;;;;;6.05;4.00;;;;;;;;;;5012793;28;20022;-63
2022/12/29 05:26:14;;;;;;;6.80;3.85;;;;;;;;;;5012289;28;20028;-67
2022/12/29 05:28:40;;;;;;;4.88;3.80;;;;;;;;;;5013033;28;20432;-63
2022/12/29 05:31:05;;;;;;;5.20;3.67;;;;;;;;;;5013008;28;20034;-63
2022/12/29 05:33:31;;;;;;;5.30;3.90;;;;;;;;;;5012785;28;20026;-62
2022/12/29 05:35:56;;;;;;;5.38;4.00;;;;;;;;;;5012770;28;20438;-62
2022/12/29 05:38:22;;;;;;;5.50;3.95;;;;;;;;;;5012825;28;20072;-62
2022/12/29 05:40:47;;;;;;;5.35;3.90;;;;;;;;;;5012859;28;20057;-62
2022/12/29 05:43:13;;;;;;;7.00;3.78;;;;;;;;;;5012739;28;20140;-67
2022/12/29 05:45:38;;;;;;;5.00;4.10;;;;;;;;;;5013624;28;20030;-62
2022/12/29 05:48:04;;;;;;;5.45;4.18;;;;;;;;;;5013384;28;20026;-62
2022/12/29 05:50:30;;;;;;;6.90;3.95;;;;;;;;;;5012655;28;20026;-62
2022/12/29 05:52:55;;;;;;;5.28;3.90;;;;;;;;;;5012727;28;20033;-63
2022/12/29 05:55:21;;;;;;;5.47;4.03;;;;;;;;;;5012444;28;20634;-66
2022/12/29 05:57:46;;;;;;;5.43;3.92;;;;;;;;;;5012581;28;20029;-62
2022/12/29 06:00:12;;;;;;;5.07;3.55;;;;;;;;;;5012793;28;20026;-63
2022/12/29 06:02:38;;;;;;;6.22;4.22;;;;;;;;;;5012786;28;20026;-63
2022/12/29 06:05:05;;;;;;;5.38;4.07;;;;;;;;;;5012646;28;20092;-62
2022/12/29 06:07:30;;;;;;;5.45;3.80;;;;;;;;;;5012450;28;20037;-62
2022/12/29 06:09:56;;;;;;;5.20;3.95;;;;;;;;;;5012442;28;20036;-63
2022/12/29 06:12:21;;;;;;;5.35;4.05;;;;;;;;;;5012445;28;20022;-63
2022/12/29 06:14:47;;;;;;;4.63;3.53;;;;;;;;;;5012528;28;20477;-62
2022/12/29 06:17:12;;;;;;;5.82;4.25;;;;;;;;;;5012506;28;20037;-63
2022/12/29 06:19:38;;;;;;;6.47;4.18;;;;;;;;;;5012288;28;20037;-63
2022/12/29 06:22:04;;;;;;;7.05;3.95;;;;;;;;;;5012340;28;20046;-66
2022/12/29 06:24:30;;;;;;;4.82;3.90;;;;;;;;;;5012420;28;20022;-66
2022/12/29 06:26:55;;;;;;;4.85;3.75;;;;;;;;;;5012273;28;20377;-67
2022/12/29 06:29:21;;;;;;;5.63;4.10;;;;;;;;;;5012185;28;20071;-66
2022/12/29 06:31:48;;;;;;;5.57;4.07;;;;;;;;;;5012247;28;20033;-63
2022/12/29 06:34:14;;;;;;;4.97;4.15;;;;;;;;;;5012060;28;20041;-62
2022/12/29 06:36:39;;;;;;;5.57;3.97;;;;;;;;;;5012192;28;20030;-63
2022/12/29 06:39:05;;;;;;;5.72;4.05;;;;;;;;;;4997907;28;20239;-62
2022/12/29 06:41:31;;;;;;;5.28;3.90;;;;;;;;;;5015961;28;20037;-62
2022/12/29 06:43:57;;;;;;;5.28;3.80;;;;;;;;;;5015951;28;20037;-63
2022/12/29 06:46:22;;;;;;;7.20;4.28;;;;;;;;;;5015805;28;20500;-63
2022/12/29 06:48:48;;;;;;;5.88;4.40;;;;;;;;;;5015711;28;20532;-62
2022/12/29 06:51:13;;;;;;;5.72;4.40;;;;;;;;;;5015866;28;20025;-66
2022/12/29 06:53:39;;;;;;;5.78;4.03;;;;;;;;;;5015581;28;20018;-66
2022/12/29 06:56:04;;;;;;;5.13;4.05;;;;;;;;;;5015768;28;20030;-68
2022/12/29 06:58:30;;;;;;;5.20;4.32;;;;;;;;;;5015886;28;20029;-67
2022/12/29 07:00:55;;;;;;;5.57;4.00;;;;;;;;;;5015766;28;20369;-63
2022/12/29 07:03:21;;;;;;;5.97;4.07;;;;;;;;;;5015434;28;20022;-66
2022/12/29 07:05:46;;;;;;;7.05;4.30;;;;;;;;;;5015819;28;20513;-65
2022/12/29 07:08:12;;;;;;;5.18;4.00;;;;;;;;;;5015284;28;20026;-67
2022/12/29 07:10:38;;;;;;;6.43;4.47;;;;;;;;;;5015629;28;20060;-66
2022/12/29 07:13:03;;;;;;;5.38;4.00;;;;;;;;;;5015358;28;20474;-66
2022/12/29 07:15:29;;;;;;;5.72;4.40;;;;;;;;;;5015098;28;20141;-65
2022/12/29 07:17:54;;;;;;;7.60;4.40;;;;;;;;;;5015301;28;20029;-67
2022/12/29 07:20:20;;;;;;;5.88;4.28;;;;;;;;;;5015580;28;20026;-66
2022/12/29 07:22:46;;;;;;;6.75;4.60;;;;;;;;;;5015063;28;20401;-67
2022/12/29 07:25:12;;;;;;;5.78;4.88;;;;;;;;;;5014997;28;20414;-63
2022/12/29 07:27:38;;;;;;;5.90;4.40;;;;;;;;;;5015426;28;20101;-64
2022/12/29 07:30:04;;;;;;;6.55;4.47;;;;;;;;;;5014979;28;20025;-67
2022/12/29 07:32:32;;;;;;;7.45;4.72;;;;;;;;;;5015205;28;20038;-63
2022/12/29 07:34:58;;;;;;;7.68;5.28;;;;;;;;;;5014967;28;20465;-64
2022/12/29 07:37:23;;;;;;;5.60;4.43;;;;;;;;;;5015089;28;20034;-65
2022/12/29 07:39:49;;;;;;;6.28;4.55;;;;;;;;;;5015192;28;20026;-64
2022/12/29 07:42:14;;;;;;;6.55;4.88;;;;;;;;;;5014858;28;20030;-64
2022/12/29 07:44:40;;;;;;;7.22;4.85;;;;;;;;;;5014574;28;20018;-63
2022/12/29 07:47:05;;;;;;;6.47;5.05;;;;;;;;;;5014632;28;20023;-63
2022/12/29 07:49:31;;;;;;;6.43;4.43;;;;;;;;;;5014061;28;20022;-63
2022/12/29 07:51:56;;;;;;;7.00;4.57;;;;;;;;;;5014495;28;20026;-63
2022/12/29 07:54:23;;;;;;;6.28;4.30;;;;;;;;;;5014487;28;20022;-63
2022/12/29 07:56:48;;;;;;;7.03;4.90;;;;;;;;;;5014566;28;20026;-63
2022/12/29 07:59:14;;;;;;;7.43;4.75;;;;;;;;;;5014510;28;20030;-63
2022/12/29 08:01:39;;;;;;;7.47;4.97;;;;;;;;;;5014699;28;20037;-63
2022/12/29 08:04:05;;;;;;;6.07;4.93;;;;;;;;;;5014654;28;20532;-63
2022/12/29 08:06:30;;;;;;;8.00;5.03;;;;;;;;;;5014372;28;20025;-65
2022/12/29 08:08:57;;;;;;;6.68;4.82;;;;;;;;;;5014553;28;20042;-63
2022/12/29 08:11:23;;;;;;;6.20;4.65;;;;;;;;;;5012179;28;20470;-63
2022/12/29 08:13:49;;;;;;;6.43;4.93;;;;;;;;;;5009771;28;20029;-62
2022/12/29 08:16:14;;;;;;;6.65;5.07;;;;;;;;;;5012232;28;20029;-64
2022/12/29 08:18:40;;;;;;;6.72;5.00;;;;;;;;;;5014276;28;20033;-62
2022/12/29 08:21:07;;;;;;;6.07;4.93;;;;;;;;;;5013692;28;20033;-68
2022/12/29 08:23:32;;;;;;;7.43;5.38;;;;;;;;;;5013836;28;20080;-67
2022/12/29 08:26:04;;;;;;;7.15;5.22;;;;;;;;;;5013765;28;20026;-62
2022/12/29 08:28:30;;;;;;;6.97;5.13;;;;;;;;;;5013792;28;20109;-67
2022/12/29 08:31:00;;;;;;;6.50;4.82;;;;;;;;;;5013679;28;20038;-69
2022/12/29 08:33:26;;;;;;;;;;;;;;;;;;5014108;28;20025;-68
2022/12/29 08:35:52;;;;;;;7.63;5.38;;;;;;;;;;5013710;28;20269;-67
2022/12/29 08:38:17;;;;;;;7.93;5.22;;;;;;;;;;5013958;28;20029;-67
2022/12/29 08:40:43;;;;;;;6.13;4.85;;;;;;;;;;5013751;28;20101;-71
2022/12/29 08:43:09;;;;;;;8.00;5.60;;;;;;;;;;5013847;28;20032;-63
2022/12/29 08:45:34;;;;;;;5.90;5.15;;;;;;;;;;5013681;28;20073;-70
2022/12/29 08:48:01;;;;;;;7.30;5.35;;;;;;;;;;5006562;28;20037;-71
2022/12/29 08:50:26;;;;;;;7.07;5.15;;;;;;;;;;4988249;28;20113;-70
2022/12/29 08:52:52;;;;;;;6.90;4.82;;;;;;;;;;5011909;28;20109;-63
2022/12/29 08:55:17;;;;;;;6.38;4.82;;;;;;;;;;5011761;28;20026;-63
2022/12/29 08:57:43;;;;;;;7.20;5.18;;;;;;;;;;4994371;28;20037;-63
2022/12/29 09:00:09;;;;;;;7.15;5.03;;;;;;;;;;5010639;28;20109;-62
2022/12/29 09:02:35;;;;;;;8.63;5.20;;;;;;;;;;4998611;28;20042;-61
2022/12/29 09:05:01;;;;;;;7.30;5.30;;;;;;;;;;5010213;28;20406;-63
2022/12/29 09:07:26;;;;;;;7.15;5.00;;;;;;;;;;5011684;28;20100;-64
2022/12/29 09:09:52;;;;;;;8.05;5.38;;;;;;;;;;5011524;28;20401;-64
2022/12/29 09:12:18;;;;;;;7.65;5.07;;;;;;;;;;5009596;28;20128;-64
2022/12/29 09:14:46;;;;;;;6.78;5.28;;;;;;;;;;5011387;28;20030;-65
2022/12/29 09:19:56;;;;;;;6.68;5.03;;;;;;;;;;5011386;28;20044;-65
2022/12/29 09:22:21;;;;;;;7.78;5.35;;;;;;;;;;5004298;28;20042;-66
2022/12/29 09:24:47;;;;;;;7.05;4.93;;;;;;;;;;5006451;28;20034;-67
2022/12/29 09:27:12;;;;;;;8.63;5.10;;;;;;;;;;5008113;28;20037;-67
2022/12/29 09:29:38;;;;;;;7.28;5.38;;;;;;;;;;4994901;28;20038;-66
2022/12/29 09:32:04;;;;;;;7.75;5.82;;;;;;;;;;4994609;28;20077;-66
2022/12/29 09:34:29;;;;;;;6.65;5.00;;;;;;;;;;5000864;28;20117;-66
2022/12/29 09:36:56;;;;;;;7.40;5.40;;;;;;;;;;4999900;28;20026;-64
2022/12/29 09:39:22;;;;;;;8.25;5.50;;;;;;;;;;4998169;28;20053;-64
2022/12/29 09:42:06;;;;;;;7.75;5.65;;;;;;;;;;5000465;28;20050;-65
2022/12/29 09:44:40;;;;;;;7.28;5.13;;;;;;;;;;5001214;28;20077;-66
2022/12/29 09:47:11;;;;;;;7.57;5.50;;;;;;;;;;5003729;28;20030;-66
2022/12/29 09:49:45;;;;;;;6.22;4.65;;;;;;;;;;5009917;28;20064;-65
2022/12/29 09:52:18;;;;;;;8.75;5.70;;;;;;;;;;5009350;28;20088;-65
2022/12/29 09:55:05;;;;;;;6.68;4.85;;;;;;;;;;5011164;28;20087;-66
2022/12/29 09:57:43;;;;;;;7.97;5.03;;;;;;;;;;5011161;28;20026;-65
2022/12/29 10:00:14;;;;;;;7.90;5.28;;;;;;;;;;5007799;28;20033;-67
2022/12/29 10:02:56;;;;;;;10.73;6.45;;;;;;;;;;4980622;28;20486;-65
2022/12/29 10:05:28;;;;;;;46.78;10.55;;;;;;;;;;4991474;28;20066;-68
2022/12/29 10:07:53;;;;;;;20.40;10.82;;;;;;;;;;5001434;28;20493;-67
2022/12/29 10:10:30;;;;;;;28.30;10.90;;;;;;;;;;5001189;28;20118;-66
2022/12/29 10:13:13;;;;;;;20.73;11.30;;;;;;;;;;5010319;28;20060;-67
2022/12/29 10:15:56;;;;;;;21.90;11.25;;;;;;;;;;5009901;28;20025;-65
2022/12/29 10:21:36;;;;;;;16.15;10.48;;;;;;;;;;5012861;28;20107;-68
2022/12/29 10:24:07;;;;;;;16.85;11.38;;;;;;;;;;5011633;28;20096;-65
2022/12/29 10:26:41;;;;;;;18.15;11.40;;;;;;;;;;5004315;28;20085;-65
2022/12/29 10:29:23;;;;;;;15.45;10.85;;;;;;;;;;5013642;28;20053;-64
2022/12/29 10:31:59;;;;;;;16.25;11.35;;;;;;;;;;5012485;28;20030;-66
2022/12/29 10:34:49;;;;;;;15.45;11.20;;;;;;;;;;5012399;28;20034;-67
2022/12/29 10:37:40;;;;;;;19.20;11.43;;;;;;;;;;5014312;28;20034;-64
2022/12/29 10:40:32;;;;;;;15.48;11.35;;;;;;;;;;5014301;28;20041;-65
2022/12/29 10:42:59;;;;;;;21.83;11.30;;;;;;;;;;4997589;28;20050;-65
2022/12/29 10:45:30;;;;;;;17.73;11.80;;;;;;;;;;4993387;28;20108;-65
2022/12/29 10:48:08;;;;;;;19.02;12.30;;;;;;;;;;4993472;28;20667;-66
2022/12/29 10:50:35;;;;;;;17.70;11.38;;;;;;;;;;4994064;28;20029;-65
2022/12/29 10:53:04;;;;;;;18.48;12.18;;;;;;;;;;4995997;28;20035;-64
2022/12/29 10:55:36;;;;;;;16.93;11.40;;;;;;;;;;4994461;28;20081;-65
2022/12/29 10:58:07;;;;;;;16.48;12.07;;;;;;;;;;4994856;28;20291;-64
2022/12/29 11:00:33;;;;;;;18.77;11.98;;;;;;;;;;4994483;28;20062;-65
2022/12/29 11:03:06;;;;;;;21.55;13.15;;;;;;;;;;4994556;28;20022;-65
2022/12/29 11:05:37;;;;;;;16.92;12.07;;;;;;;;;;4994599;28;20252;-64
2022/12/29 11:08:10;;;;;;;16.58;11.82;;;;;;;;;;4994449;28;20026;-66
2022/12/29 11:10:42;;;;;;;17.80;11.93;;;;;;;;;;4994512;28;20058;-66
2022/12/29 11:13:16;;;;;;;16.52;11.75;;;;;;;;;;4994337;28;20109;-66
2022/12/29 11:15:48;;;;;;;18.33;12.38;;;;;;;;;;4994313;28;20033;-65
2022/12/29 11:18:37;;;;;;;16.45;12.27;;;;;;;;;;4994345;28;20454;-67
2022/12/29 11:21:06;;;;;;;18.58;12.35;;;;;;;;;;4994170;28;20118;-65
2022/12/29 11:23:40;;;;;;;16.73;11.77;;;;;;;;;;4993847;28;20043;-65
2022/12/29 11:26:10;;;;;;;16.75;12.25;;;;;;;;;;4992922;28;20791;-65
2022/12/29 11:28:41;;;;;;;17.65;12.38;;;;;;;;;;4993482;28;20080;-65
2022/12/29 11:31:08;;;;;;;18.65;12.48;;;;;;;;;;4994193;28;20057;-65
2022/12/29 11:33:35;;;;;;;21.20;13.40;;;;;;;;;;4994195;28;20030;-65
2022/12/29 11:36:20;;;;;;;18.05;12.98;;;;;;;;;;4993831;28;20106;-65
2022/12/29 11:38:54;;;;;;;22.10;13.40;;;;;;;;;;4999770;28;20046;-65
2022/12/29 11:41:24;;;;;;;24.77;13.30;;;;;;;;;;5013727;28;20041;-65
2022/12/29 11:43:50;;;;;;;19.93;12.97;;;;;;;;;;5013298;28;20080;-65
2022/12/29 11:46:47;;;;;;;18.92;13.43;;;;;;;;;;5013449;28;20267;-65
2022/12/29 11:49:20;;;;;;;21.42;14.07;;;;;;;;;;5005002;28;20050;-65
2022/12/29 11:51:48;;;;;;;20.70;14.30;;;;;;;;;;4995739;28;20056;-64
2022/12/29 11:54:36;;;;;;;21.00;13.75;;;;;;;;;;5012984;28;20033;-65
2022/12/29 11:57:14;;;;;;;20.20;13.50;;;;;;;;;;5013292;28;20056;-65
2022/12/29 11:59:42;;;;;;;21.75;13.95;;;;;;;;;;5013153;28;20022;-65
2022/12/29 12:02:32;;;;;;;21.42;13.60;;;;;;;;;;5012814;28;20559;-65
2022/12/29 12:05:11;;;;;;;21.70;14.23;;;;;;;;;;5011593;28;20048;-66
2022/12/29 12:07:41;;;;;;;22.05;13.60;;;;;;;;;;5012710;28;20092;-66
2022/12/29 12:10:11;;;;;;;;;;;;;;;;;;5013257;28;20044;-66
2022/12/29 12:12:44;;;;;;;20.38;12.50;;;;;;;;;;5012871;28;20381;-66
2022/12/29 12:15:19;;;;;;;19.15;13.65;;;;;;;;;;5013131;28;20026;-66
2022/12/29 12:18:17;;;;;;;18.90;13.02;;;;;;;;;;5012647;28;20053;-66
2022/12/29 12:20:45;;;;;;;24.23;13.77;;;;;;;;;;5009630;28;20034;-66
2022/12/29 12:23:32;;;;;;;19.58;13.98;;;;;;;;;;5012391;28;20120;-64
2022/12/29 12:26:26;;;;;;;24.23;14.00;;;;;;;;;;5011178;28;20033;-64
2022/12/29 12:28:57;;;;;;;23.92;14.25;;;;;;;;;;5003669;28;20133;-64
2022/12/29 12:31:31;;;;;;;;;;;;;;;;;;5012563;28;20033;-65
2022/12/29 12:34:05;;;;;;;22.50;14.52;;;;;;;;;;5012284;28;19971;-65
2022/12/29 12:36:49;;;;;;;23.58;14.65;;;;;;;;;;5012066;28;20207;-65
2022/12/29 12:39:45;;;;;;;22.65;14.50;;;;;;;;;;5012367;28;20066;-64
2022/12/29 12:42:20;;;;;;;25.38;14.18;;;;;;;;;;5012056;28;20123;-64
2022/12/29 12:45:04;;;;;;;20.27;14.65;;;;;;;;;;5012454;28;20026;-64
2022/12/29 12:47:53;;;;;;;24.67;13.63;;;;;;;;;;5011976;28;20057;-64
2022/12/29 12:50:27;;;;;;;23.80;15.02;;;;;;;;;;5012114;28;20052;-67
2022/12/29 12:53:16;;;;;;;24.48;15.15;;;;;;;;;;5012354;28;20030;-64
2022/12/29 12:56:15;;;;;;;22.10;13.75;;;;;;;;;;5012072;28;20091;-64
2022/12/29 12:59:12;;;;;;;23.73;14.30;;;;;;;;;;5011936;28;20080;-64
2022/12/29 13:01:51;;;;;;;25.10;16.15;;;;;;;;;;5011818;28;20112;-65
2022/12/29 13:05:00;;;;;;;21.58;14.60;;;;;;;;;;5012046;28;20048;-64
2022/12/29 13:07:28;;;;;;;23.00;15.13;;;;;;;;;;5010533;28;20038;-66
2022/12/29 13:10:09;;;;;;;23.70;15.20;;;;;;;;;;5011739;28;20461;-66
2022/12/29 13:12:43;;;;;;;;;;;;;;;;;;5011888;28;20041;-66
2022/12/29 13:15:32;;;;;;;19.75;13.77;;;;;;;;;;4998464;28;19922;-67
2022/12/29 13:18:09;;;;;;;22.05;14.95;;;;;;;;;;5010949;28;20038;-67
2022/12/29 13:20:44;;;;;;;22.88;15.23;;;;;;;;;;5011719;28;20125;-67
2022/12/29 13:23:41;;;;;;;23.35;14.95;;;;;;;;;;5010815;28;20100;-66
2022/12/29 13:26:42;;;;;;;21.02;15.05;;;;;;;;;;4990124;28;20054;-66
2022/12/29 13:29:33;;;;;;;22.30;15.00;;;;;;;;;;5008671;28;20048;-67
2022/12/29 13:32:23;;;;;;;22.90;14.52;;;;;;;;;;5011278;28;20034;-67
2022/12/29 13:35:16;;;;;;;23.02;15.38;;;;;;;;;;5011408;28;20034;-67
2022/12/29 13:38:10;;;;;;;21.80;14.73;;;;;;;;;;5011444;28;20041;-66
2022/12/29 13:40:42;;;;;;;22.50;15.02;;;;;;;;;;4978805;28;20038;-67
2022/12/29 13:43:09;;;;;;;23.73;14.95;;;;;;;;;;5007232;28;20535;-67
2022/12/29 13:45:35;;;;;;;24.90;15.07;;;;;;;;;;5009797;28;20026;-67
2022/12/29 13:48:07;;;;;;;21.38;15.18;;;;;;;;;;5010386;28;20052;-66
2022/12/29 13:50:38;;;;;;;23.00;15.52;;;;;;;;;;5011052;28;20029;-66
2022/12/29 13:53:27;;;;;;;23.70;15.13;;;;;;;;;;5011166;28;20087;-66
2022/12/29 13:56:11;;;;;;;24.77;15.02;;;;;;;;;;5011293;28;20029;-66
2022/12/29 13:58:46;;;;;;;22.85;14.70;;;;;;;;;;5009229;28;20053;-66
2022/12/29 14:01:49;;;;;;;22.58;14.50;;;;;;;;;;5011069;28;20038;-68
2022/12/29 14:04:23;;;;;;;24.52;15.07;;;;;;;;;;4973526;28;20049;-67
2022/12/29 14:07:01;;;;;;;20.13;14.50;;;;;;;;;;5006794;28;20060;-67
2022/12/29 14:09:51;;;;;;;21.75;14.40;;;;;;;;;;5009532;28;20080;-67
2022/12/29 14:12:42;;;;;;;24.15;15.68;;;;;;;;;;5009976;28;20114;-67
2022/12/29 14:15:11;;;;;;;22.00;14.90;;;;;;;;;;5010080;28;20497;-68
2022/12/29 14:17:39;;;;;;;21.80;14.95;;;;;;;;;;5010753;28;20129;-68
2022/12/29 14:20:17;;;;;;;22.50;15.02;;;;;;;;;;5008975;28;20462;-68
2022/12/29 14:23:01;;;;;;;25.30;15.82;;;;;;;;;;5008895;28;20038;-66
2022/12/29 14:26:05;;;;;;;19.65;13.38;;;;;;;;;;4991717;28;20101;-68
2022/12/29 14:28:33;;;;;;;25.45;15.55;;;;;;;;;;4995331;28;20034;-68
2022/12/29 14:31:00;;;;;;;20.70;14.45;;;;;;;;;;5010856;28;20041;-68
2022/12/29 14:33:29;;;;;;;22.52;15.23;;;;;;;;;;5010855;28;20034;-67
2022/12/29 14:35:55;;;;;;;27.77;16.10;;;;;;;;;;5010942;28;20049;-67
2022/12/29 14:38:24;;;;;;;22.83;14.90;;;;;;;;;;5010806;28;20125;-68
2022/12/29 14:40:51;;;;;;;22.95;15.10;;;;;;;;;;5007092;28;20022;-66
2022/12/29 14:43:34;;;;;;;22.67;15.50;;;;;;;;;;5008381;28;20030;-67
2022/12/29 14:46:02;;;;;;;21.45;15.20;;;;;;;;;;5010649;28;20030;-68
2022/12/29 14:48:43;;;;;;;22.40;15.38;;;;;;;;;;5010434;28;20116;-67
2022/12/29 14:51:38;;;;;;;24.30;14.75;;;;;;;;;;5008537;28;20034;-67
2022/12/29 14:54:31;;;;;;;23.65;14.65;;;;;;;;;;4973937;28;20073;-67
2022/12/29 14:57:06;;;;;;;22.75;13.98;;;;;;;;;;4990869;28;20022;-67
2022/12/29 14:59:34;;;;;;;24.52;16.67;;;;;;;;;;4998292;28;20041;-67
2022/12/29 15:02:02;;;;;;;23.92;15.05;;;;;;;;;;4994532;28;20068;-67
2022/12/29 15:04:33;;;;;;;22.38;14.43;;;;;;;;;;5011105;28;20498;-66
2022/12/29 15:06:59;;;;;;;;;;;;;;;;;;5012444;28;20061;-66
2022/12/29 15:09:33;;;;;;;21.92;14.75;;;;;;;;;;5012585;28;20273;-66
2022/12/29 15:12:39;;;;;;;20.45;14.45;;;;;;;;;;5013040;28;20478;-66
2022/12/29 15:15:26;;;;;;;24.98;14.65;;;;;;;;;;5012325;28;20050;-67
2022/12/29 15:17:52;;;;;;;28.45;16.00;;;;;;;;;;5013870;28;20026;-66
2022/12/29 15:20:31;;;;;;;22.75;15.07;;;;;;;;;;5011446;28;20026;-67
2022/12/29 15:23:10;;;;;;;21.92;14.98;;;;;;;;;;5013513;28;20090;-67
2022/12/29 15:25:36;;;;;;;22.35;14.32;;;;;;;;;;5013964;28;20029;-66
2022/12/29 15:28:06;;;;;;;23.55;14.77;;;;;;;;;;5012110;28;20408;-66
2022/12/29 15:30:32;;;;;;;20.85;14.60;;;;;;;;;;5011799;28;20121;-65
2022/12/29 15:32:58;;;;;;;22.85;14.60;;;;;;;;;;5012675;28;20022;-67
2022/12/29 15:35:29;;;;;;;20.75;14.02;;;;;;;;;;5012164;28;20687;-65
2022/12/29 15:37:54;;;;;;;24.95;14.93;;;;;;;;;;5013365;28;20064;-65
2022/12/29 15:40:29;;;;;;;20.98;14.20;;;;;;;;;;5013632;28;20088;-66
2022/12/29 15:43:33;;;;;;;22.92;15.82;;;;;;;;;;5013616;28;20080;-67
2022/12/29 15:46:01;;;;;;;24.48;15.27;;;;;;;;;;5013117;28;20040;-66
2022/12/29 15:48:27;;;;;;;27.88;15.00;;;;;;;;;;5013074;28;20030;-66